sensor_id;sensor_type;location;lat;lon;timestamp;P1;durP1;ratioP1;P2;durP2;ratioP2
12114;SDS011;6121;49.810;6.418;2023-04-03T00:00:52;71.03;;;10.32;;
12114;SDS011;6121;49.810;6.418;2023-04-03T00:03:18;61.70;;;9.02;;
12114;SDS011;6121;49.810;6.418;2023-04-03T00:05:45;74.20;;;10.73;;
12114;SDS011;6121;49.810;6.418;2023-04-03T00:08:11;76.43;;;11.07;;
12114;SDS011;6121;49.810;6.418;2023-04-03T00:10:37;66.45;;;9.63;;
12114;SDS011;6121;49.810;6.418;2023-04-03T00:13:04;72.47;;;10.48;;
12114;SDS011;6121;49.810;6.418;2023-04-03T00:15:30;64.70;;;9.40;;
12114;SDS011;6121;49.810;6.418;2023-04-03T00:17:58;84.38;;;12.07;;
12114;SDS011;6121;49.810;6.418;2023-04-03T00:20:24;68.68;;;9.98;;
12114;SDS011;6121;49.810;6.418;2023-04-03T00:22:50;72.03;;;10.35;;
12114;SDS011;6121;49.810;6.418;2023-04-03T00:25:16;78.03;;;11.18;;
12114;SDS011;6121;49.810;6.418;2023-04-03T00:27:42;84.72;;;12.05;;
12114;SDS011;6121;49.810;6.418;2023-04-03T00:30:08;78.95;;;11.25;;
12114;SDS011;6121;49.810;6.418;2023-04-03T00:32:38;75.28;;;10.77;;
12114;SDS011;6121;49.810;6.418;2023-04-03T00:35:04;72.38;;;10.45;;
12114;SDS011;6121;49.810;6.418;2023-04-03T00:37:30;82.35;;;11.85;;
12114;SDS011;6121;49.810;6.418;2023-04-03T00:39:56;82.70;;;11.80;;
12114;SDS011;6121;49.810;6.418;2023-04-03T00:42:22;74.32;;;10.63;;
12114;SDS011;6121;49.810;6.418;2023-04-03T00:47:18;82.72;;;11.80;;
12114;SDS011;6121;49.810;6.418;2023-04-03T00:49:44;67.75;;;9.88;;
12114;SDS011;6121;49.810;6.418;2023-04-03T00:52:15;76.65;;;10.98;;
12114;SDS011;6121;49.810;6.418;2023-04-03T00:54:45;72.47;;;10.50;;
12114;SDS011;6121;49.810;6.418;2023-04-03T00:57:12;92.72;;;13.13;;
12114;SDS011;6121;49.810;6.418;2023-04-03T00:59:44;71.45;;;10.32;;
12114;SDS011;6121;49.810;6.418;2023-04-03T01:02:14;82.45;;;11.88;;
12114;SDS011;6121;49.810;6.418;2023-04-03T01:04:42;62.92;;;9.23;;
12114;SDS011;6121;49.810;6.418;2023-04-03T01:09:42;83.35;;;11.80;;
12114;SDS011;6121;49.810;6.418;2023-04-03T01:12:20;95.35;;;13.50;;
12114;SDS011;6121;49.810;6.418;2023-04-03T01:14:49;74.95;;;10.82;;
12114;SDS011;6121;49.810;6.418;2023-04-03T01:25:51;81.63;;;11.75;;
12114;SDS011;6121;49.810;6.418;2023-04-03T01:28:21;76.38;;;11.15;;
12114;SDS011;6121;49.810;6.418;2023-04-03T01:31:13;65.43;;;9.60;;
12114;SDS011;6121;49.810;6.418;2023-04-03T01:33:39;63.17;;;9.35;;
12114;SDS011;6121;49.810;6.418;2023-04-03T01:36:05;96.22;;;13.68;;
12114;SDS011;6121;49.810;6.418;2023-04-03T01:38:32;65.75;;;9.68;;
12114;SDS011;6121;49.810;6.418;2023-04-03T01:40:58;81.18;;;11.70;;
12114;SDS011;6121;49.810;6.418;2023-04-03T01:43:24;66.97;;;9.82;;
12114;SDS011;6121;49.810;6.418;2023-04-03T01:45:49;78.80;;;11.43;;
12114;SDS011;6121;49.810;6.418;2023-04-03T01:48:18;63.65;;;9.40;;
12114;SDS011;6121;49.810;6.418;2023-04-03T01:50:44;57.55;;;8.63;;
12114;SDS011;6121;49.810;6.418;2023-04-03T01:53:11;68.72;;;10.13;;
12114;SDS011;6121;49.810;6.418;2023-04-03T01:55:36;61.37;;;9.13;;
12114;SDS011;6121;49.810;6.418;2023-04-03T01:58:02;68.97;;;10.05;;
12114;SDS011;6121;49.810;6.418;2023-04-03T02:00:28;72.82;;;10.77;;
12114;SDS011;6121;49.810;6.418;2023-04-03T02:02:54;79.55;;;11.60;;
12114;SDS011;6121;49.810;6.418;2023-04-03T02:05:20;60.13;;;9.00;;
12114;SDS011;6121;49.810;6.418;2023-04-03T02:07:46;80.88;;;11.80;;
12114;SDS011;6121;49.810;6.418;2023-04-03T02:10:12;75.87;;;11.03;;
12114;SDS011;6121;49.810;6.418;2023-04-03T02:12:38;66.68;;;9.93;;
12114;SDS011;6121;49.810;6.418;2023-04-03T02:15:05;71.95;;;10.52;;
12114;SDS011;6121;49.810;6.418;2023-04-03T02:17:31;72.55;;;10.73;;
12114;SDS011;6121;49.810;6.418;2023-04-03T02:19:57;85.13;;;12.27;;
12114;SDS011;6121;49.810;6.418;2023-04-03T02:22:23;80.18;;;11.70;;
12114;SDS011;6121;49.810;6.418;2023-04-03T02:24:50;73.70;;;10.85;;
12114;SDS011;6121;49.810;6.418;2023-04-03T02:27:17;81.68;;;12.00;;
12114;SDS011;6121;49.810;6.418;2023-04-03T02:29:43;69.63;;;10.38;;
12114;SDS011;6121;49.810;6.418;2023-04-03T02:32:09;75.60;;;11.02;;
12114;SDS011;6121;49.810;6.418;2023-04-03T02:34:34;56.65;;;8.65;;
12114;SDS011;6121;49.810;6.418;2023-04-03T02:37:01;92.75;;;13.43;;
12114;SDS011;6121;49.810;6.418;2023-04-03T02:39:28;65.70;;;9.82;;
12114;SDS011;6121;49.810;6.418;2023-04-03T02:41:54;76.00;;;11.10;;
12114;SDS011;6121;49.810;6.418;2023-04-03T02:44:23;90.85;;;12.77;;
12114;SDS011;6121;49.810;6.418;2023-04-03T02:46:49;102.70;;;14.25;;
12114;SDS011;6121;49.810;6.418;2023-04-03T02:49:16;96.75;;;13.32;;
12114;SDS011;6121;49.810;6.418;2023-04-03T02:51:42;71.05;;;10.25;;
12114;SDS011;6121;49.810;6.418;2023-04-03T02:54:08;85.63;;;11.98;;
12114;SDS011;6121;49.810;6.418;2023-04-03T02:56:37;111.82;;;15.32;;
12114;SDS011;6121;49.810;6.418;2023-04-03T02:59:04;68.22;;;9.73;;
12114;SDS011;6121;49.810;6.418;2023-04-03T03:01:32;73.05;;;10.50;;
12114;SDS011;6121;49.810;6.418;2023-04-03T03:03:58;86.17;;;12.03;;
12114;SDS011;6121;49.810;6.418;2023-04-03T03:06:25;109.07;;;14.97;;
12114;SDS011;6121;49.810;6.418;2023-04-03T03:08:51;73.50;;;10.63;;
12114;SDS011;6121;49.810;6.418;2023-04-03T03:11:17;93.10;;;12.93;;
12114;SDS011;6121;49.810;6.418;2023-04-03T03:13:44;69.05;;;9.90;;
12114;SDS011;6121;49.810;6.418;2023-04-03T03:16:10;97.40;;;13.50;;
12114;SDS011;6121;49.810;6.418;2023-04-03T03:18:36;75.45;;;10.77;;
12114;SDS011;6121;49.810;6.418;2023-04-03T03:21:02;72.25;;;10.35;;
12114;SDS011;6121;49.810;6.418;2023-04-03T03:23:29;78.65;;;11.23;;
12114;SDS011;6121;49.810;6.418;2023-04-03T03:25:58;87.40;;;12.35;;
12114;SDS011;6121;49.810;6.418;2023-04-03T03:28:26;72.78;;;10.57;;
12114;SDS011;6121;49.810;6.418;2023-04-03T03:30:51;82.65;;;11.57;;
12114;SDS011;6121;49.810;6.418;2023-04-03T03:33:19;81.97;;;11.67;;
12114;SDS011;6121;49.810;6.418;2023-04-03T03:35:45;67.22;;;9.70;;
12114;SDS011;6121;49.810;6.418;2023-04-03T03:38:11;99.40;;;13.68;;
12114;SDS011;6121;49.810;6.418;2023-04-03T03:40:37;62.20;;;9.15;;
12114;SDS011;6121;49.810;6.418;2023-04-03T03:43:03;82.72;;;11.60;;
12114;SDS011;6121;49.810;6.418;2023-04-03T03:45:29;76.00;;;10.90;;
12114;SDS011;6121;49.810;6.418;2023-04-03T03:47:56;83.88;;;11.88;;
12114;SDS011;6121;49.810;6.418;2023-04-03T03:50:22;83.50;;;11.77;;
12114;SDS011;6121;49.810;6.418;2023-04-03T03:52:48;67.50;;;9.85;;
12114;SDS011;6121;49.810;6.418;2023-04-03T03:55:14;93.37;;;13.03;;
12114;SDS011;6121;49.810;6.418;2023-04-03T03:57:40;64.07;;;9.43;;
12114;SDS011;6121;49.810;6.418;2023-04-03T04:00:07;85.60;;;12.20;;
12114;SDS011;6121;49.810;6.418;2023-04-03T04:02:40;86.82;;;12.32;;
12114;SDS011;6121;49.810;6.418;2023-04-03T04:05:09;78.22;;;11.18;;
12114;SDS011;6121;49.810;6.418;2023-04-03T04:07:36;77.65;;;11.20;;
12114;SDS011;6121;49.810;6.418;2023-04-03T04:10:02;89.20;;;12.65;;
12114;SDS011;6121;49.810;6.418;2023-04-03T04:12:29;77.72;;;11.15;;
12114;SDS011;6121;49.810;6.418;2023-04-03T04:14:55;71.88;;;10.43;;
12114;SDS011;6121;49.810;6.418;2023-04-03T04:17:21;103.35;;;14.48;;
12114;SDS011;6121;49.810;6.418;2023-04-03T04:19:50;67.55;;;10.13;;
12114;SDS011;6121;49.810;6.418;2023-04-03T04:22:16;79.75;;;11.68;;
12114;SDS011;6121;49.810;6.418;2023-04-03T04:24:42;81.53;;;12.05;;
12114;SDS011;6121;49.810;6.418;2023-04-03T04:27:08;92.30;;;13.43;;
12114;SDS011;6121;49.810;6.418;2023-04-03T04:29:35;67.40;;;10.23;;
12114;SDS011;6121;49.810;6.418;2023-04-03T04:32:04;79.22;;;11.68;;
12114;SDS011;6121;49.810;6.418;2023-04-03T04:34:30;93.07;;;13.38;;
12114;SDS011;6121;49.810;6.418;2023-04-03T04:36:57;106.95;;;15.40;;
12114;SDS011;6121;49.810;6.418;2023-04-03T04:39:23;75.82;;;11.18;;
12114;SDS011;6121;49.810;6.418;2023-04-03T04:41:50;68.07;;;10.07;;
12114;SDS011;6121;49.810;6.418;2023-04-03T04:44:16;88.67;;;12.83;;
12114;SDS011;6121;49.810;6.418;2023-04-03T04:46:42;117.28;;;16.67;;
12114;SDS011;6121;49.810;6.418;2023-04-03T04:49:08;101.00;;;14.35;;
12114;SDS011;6121;49.810;6.418;2023-04-03T04:51:34;76.95;;;11.38;;
12114;SDS011;6121;49.810;6.418;2023-04-03T04:54:00;78.47;;;11.43;;
12114;SDS011;6121;49.810;6.418;2023-04-03T04:56:26;117.38;;;16.55;;
12114;SDS011;6121;49.810;6.418;2023-04-03T04:58:54;72.53;;;10.85;;
12114;SDS011;6121;49.810;6.418;2023-04-03T05:01:22;85.53;;;12.80;;
12114;SDS011;6121;49.810;6.418;2023-04-03T05:03:58;85.93;;;12.75;;
12114;SDS011;6121;49.810;6.418;2023-04-03T05:06:24;120.47;;;17.08;;
12114;SDS011;6121;49.810;6.418;2023-04-03T05:08:51;72.88;;;11.13;;
12114;SDS011;6121;49.810;6.418;2023-04-03T05:11:18;76.57;;;11.60;;
12114;SDS011;6121;49.810;6.418;2023-04-03T05:13:47;70.93;;;11.00;;
12114;SDS011;6121;49.810;6.418;2023-04-03T05:16:13;106.60;;;15.43;;
12114;SDS011;6121;49.810;6.418;2023-04-03T05:18:39;65.50;;;10.10;;
12114;SDS011;6121;49.810;6.418;2023-04-03T05:21:08;73.22;;;11.18;;
12114;SDS011;6121;49.810;6.418;2023-04-03T05:23:35;74.40;;;11.27;;
12114;SDS011;6121;49.810;6.418;2023-04-03T05:26:02;77.95;;;11.73;;
12114;SDS011;6121;49.810;6.418;2023-04-03T05:28:29;73.68;;;11.20;;
12114;SDS011;6121;49.810;6.418;2023-04-03T05:30:56;73.57;;;11.18;;
12114;SDS011;6121;49.810;6.418;2023-04-03T05:33:25;79.85;;;12.07;;
12114;SDS011;6121;49.810;6.418;2023-04-03T05:35:53;81.78;;;12.27;;
12114;SDS011;6121;49.810;6.418;2023-04-03T05:38:25;85.50;;;12.80;;
12114;SDS011;6121;49.810;6.418;2023-04-03T05:40:52;66.20;;;10.18;;
12114;SDS011;6121;49.810;6.418;2023-04-03T05:43:18;85.85;;;12.70;;
12114;SDS011;6121;49.810;6.418;2023-04-03T05:45:44;73.22;;;11.10;;
12114;SDS011;6121;49.810;6.418;2023-04-03T05:48:13;99.77;;;14.57;;
12114;SDS011;6121;49.810;6.418;2023-04-03T05:50:39;57.28;;;9.15;;
12114;SDS011;6121;49.810;6.418;2023-04-03T05:53:42;106.82;;;15.45;;
12114;SDS011;6121;49.810;6.418;2023-04-03T05:56:03;111.75;;;16.02;;
12114;SDS011;6121;49.810;6.418;2023-04-03T05:58:33;98.20;;;14.38;;
12114;SDS011;6121;49.810;6.418;2023-04-03T06:01:00;86.15;;;12.80;;
12114;SDS011;6121;49.810;6.418;2023-04-03T06:03:26;82.13;;;12.25;;
12114;SDS011;6121;49.810;6.418;2023-04-03T06:05:53;77.20;;;11.70;;
12114;SDS011;6121;49.810;6.418;2023-04-03T06:08:19;111.97;;;16.17;;
12114;SDS011;6121;49.810;6.418;2023-04-03T06:10:45;82.70;;;12.48;;
12114;SDS011;6121;49.810;6.418;2023-04-03T06:13:11;99.38;;;14.55;;
12114;SDS011;6121;49.810;6.418;2023-04-03T06:15:37;82.95;;;12.40;;
12114;SDS011;6121;49.810;6.418;2023-04-03T06:18:08;110.53;;;15.95;;
12114;SDS011;6121;49.810;6.418;2023-04-03T06:20:34;88.68;;;13.23;;
12114;SDS011;6121;49.810;6.418;2023-04-03T06:22:59;95.78;;;14.02;;
12114;SDS011;6121;49.810;6.418;2023-04-03T06:25:26;110.10;;;15.82;;
12114;SDS011;6121;49.810;6.418;2023-04-03T06:27:52;90.32;;;13.52;;
12114;SDS011;6121;49.810;6.418;2023-04-03T06:30:20;89.70;;;13.45;;
12114;SDS011;6121;49.810;6.418;2023-04-03T06:32:46;112.32;;;16.35;;
12114;SDS011;6121;49.810;6.418;2023-04-03T06:35:12;96.90;;;14.38;;
12114;SDS011;6121;49.810;6.418;2023-04-03T06:37:38;91.25;;;13.48;;
12114;SDS011;6121;49.810;6.418;2023-04-03T06:40:04;89.53;;;13.32;;
12114;SDS011;6121;49.810;6.418;2023-04-03T06:42:30;102.85;;;15.13;;
12114;SDS011;6121;49.810;6.418;2023-04-03T06:45:07;94.47;;;14.13;;
12114;SDS011;6121;49.810;6.418;2023-04-03T06:47:34;113.50;;;16.77;;
12114;SDS011;6121;49.810;6.418;2023-04-03T06:50:00;88.13;;;13.45;;
12114;SDS011;6121;49.810;6.418;2023-04-03T06:52:26;102.60;;;15.27;;
12114;SDS011;6121;49.810;6.418;2023-04-03T06:54:52;82.78;;;12.77;;
12114;SDS011;6121;49.810;6.418;2023-04-03T06:57:22;123.87;;;17.97;;
12114;SDS011;6121;49.810;6.418;2023-04-03T06:59:48;82.95;;;12.88;;
12114;SDS011;6121;49.810;6.418;2023-04-03T07:02:14;99.30;;;14.75;;
12114;SDS011;6121;49.810;6.418;2023-04-03T07:04:40;102.18;;;15.25;;
12114;SDS011;6121;49.810;6.418;2023-04-03T07:07:06;120.10;;;17.45;;
12114;SDS011;6121;49.810;6.418;2023-04-03T07:09:32;119.00;;;17.42;;
12114;SDS011;6121;49.810;6.418;2023-04-03T07:11:58;81.57;;;12.20;;
12114;SDS011;6121;49.810;6.418;2023-04-03T07:14:25;101.50;;;14.82;;
12114;SDS011;6121;49.810;6.418;2023-04-03T07:16:51;129.10;;;18.38;;
12114;SDS011;6121;49.810;6.418;2023-04-03T07:19:16;105.10;;;15.03;;
12114;SDS011;6121;49.810;6.418;2023-04-03T07:21:43;87.27;;;12.80;;
12114;SDS011;6121;49.810;6.418;2023-04-03T07:24:09;91.68;;;13.18;;
12114;SDS011;6121;49.810;6.418;2023-04-03T07:26:36;120.15;;;16.98;;
12114;SDS011;6121;49.810;6.418;2023-04-03T07:29:02;81.23;;;11.93;;
12114;SDS011;6121;49.810;6.418;2023-04-03T07:31:28;91.00;;;13.05;;
12114;SDS011;6121;49.810;6.418;2023-04-03T07:33:54;97.35;;;13.95;;
12114;SDS011;6121;49.810;6.418;2023-04-03T07:36:21;116.15;;;16.50;;
12114;SDS011;6121;49.810;6.418;2023-04-03T07:38:47;77.43;;;11.32;;
12114;SDS011;6121;49.810;6.418;2023-04-03T07:41:14;85.60;;;12.37;;
12114;SDS011;6121;49.810;6.418;2023-04-03T07:43:43;87.70;;;12.63;;
12114;SDS011;6121;49.810;6.418;2023-04-03T07:46:09;114.97;;;16.23;;
12114;SDS011;6121;49.810;6.418;2023-04-03T07:48:35;102.25;;;14.70;;
12114;SDS011;6121;49.810;6.418;2023-04-03T07:51:03;101.50;;;14.63;;
12114;SDS011;6121;49.810;6.418;2023-04-03T07:53:31;103.35;;;14.77;;
12114;SDS011;6121;49.810;6.418;2023-04-03T07:55:57;100.80;;;14.52;;
12114;SDS011;6121;49.810;6.418;2023-04-03T07:58:24;117.43;;;16.55;;
12114;SDS011;6121;49.810;6.418;2023-04-03T08:00:50;86.30;;;12.50;;
12114;SDS011;6121;49.810;6.418;2023-04-03T08:03:17;106.68;;;15.07;;
12114;SDS011;6121;49.810;6.418;2023-04-03T08:05:43;99.00;;;14.13;;
12114;SDS011;6121;49.810;6.418;2023-04-03T08:08:11;104.57;;;15.05;;
12114;SDS011;6121;49.810;6.418;2023-04-03T08:10:38;87.30;;;12.65;;
12114;SDS011;6121;49.810;6.418;2023-04-03T08:13:05;90.82;;;13.07;;
12114;SDS011;6121;49.810;6.418;2023-04-03T08:15:32;112.28;;;15.75;;
12114;SDS011;6121;49.810;6.418;2023-04-03T08:17:59;103.93;;;14.67;;
12114;SDS011;6121;49.810;6.418;2023-04-03T08:20:26;112.63;;;15.95;;
12114;SDS011;6121;49.810;6.418;2023-04-03T08:22:52;99.50;;;14.32;;
12114;SDS011;6121;49.810;6.418;2023-04-03T08:25:18;107.25;;;15.07;;
12114;SDS011;6121;49.810;6.418;2023-04-03T08:27:44;123.40;;;17.27;;
12114;SDS011;6121;49.810;6.418;2023-04-03T08:30:10;88.25;;;12.77;;
12114;SDS011;6121;49.810;6.418;2023-04-03T08:32:36;114.70;;;16.13;;
12114;SDS011;6121;49.810;6.418;2023-04-03T08:35:03;93.28;;;12.95;;
12114;SDS011;6121;49.810;6.418;2023-04-03T08:37:29;130.65;;;17.63;;
12114;SDS011;6121;49.810;6.418;2023-04-03T08:39:56;92.72;;;12.88;;
12114;SDS011;6121;49.810;6.418;2023-04-03T08:42:44;108.70;;;14.90;;
12114;SDS011;6121;49.810;6.418;2023-04-03T08:45:21;91.93;;;12.88;;
12114;SDS011;6121;49.810;6.418;2023-04-03T08:48:05;94.10;;;13.07;;
12114;SDS011;6121;49.810;6.418;2023-04-03T08:50:41;97.13;;;13.50;;
12114;SDS011;6121;49.810;6.418;2023-04-03T08:53:12;104.60;;;14.35;;
12114;SDS011;6121;49.810;6.418;2023-04-03T08:55:45;115.13;;;15.88;;
12114;SDS011;6121;49.810;6.418;2023-04-03T09:00:46;101.28;;;14.18;;
12114;SDS011;6121;49.810;6.418;2023-04-03T09:03:20;125.28;;;17.08;;
12114;SDS011;6121;49.810;6.418;2023-04-03T09:05:53;91.90;;;12.80;;
12114;SDS011;6121;49.810;6.418;2023-04-03T09:08:36;110.78;;;15.13;;
12114;SDS011;6121;49.810;6.418;2023-04-03T09:16:58;126.70;;;17.20;;
12114;SDS011;6121;49.810;6.418;2023-04-03T09:19:37;102.95;;;14.18;;
12114;SDS011;6121;49.810;6.418;2023-04-03T09:22:25;134.65;;;18.05;;
12114;SDS011;6121;49.810;6.418;2023-04-03T09:25:09;120.22;;;16.30;;
12114;SDS011;6121;49.810;6.418;2023-04-03T09:27:38;111.20;;;15.17;;
12114;SDS011;6121;49.810;6.418;2023-04-03T09:30:05;100.43;;;13.88;;
12114;SDS011;6121;49.810;6.418;2023-04-03T09:32:37;103.63;;;14.30;;
12114;SDS011;6121;49.810;6.418;2023-04-03T09:35:04;89.25;;;12.48;;
12114;SDS011;6121;49.810;6.418;2023-04-03T09:37:40;121.60;;;16.45;;
12114;SDS011;6121;49.810;6.418;2023-04-03T09:40:28;98.75;;;13.60;;
12114;SDS011;6121;49.810;6.418;2023-04-03T09:42:57;112.87;;;15.43;;
12114;SDS011;6121;49.810;6.418;2023-04-03T09:45:26;99.18;;;13.57;;
12114;SDS011;6121;49.810;6.418;2023-04-03T09:48:07;123.60;;;16.73;;
12114;SDS011;6121;49.810;6.418;2023-04-03T09:55:53;83.82;;;11.70;;
12114;SDS011;6121;49.810;6.418;2023-04-03T09:58:27;103.80;;;14.23;;
12114;SDS011;6121;49.810;6.418;2023-04-03T10:01:00;120.25;;;16.23;;
12114;SDS011;6121;49.810;6.418;2023-04-03T10:03:32;119.20;;;16.13;;
12114;SDS011;6121;49.810;6.418;2023-04-03T10:06:03;153.18;;;21.65;;
12114;SDS011;6121;49.810;6.418;2023-04-03T10:08:39;160.93;;;23.02;;
12114;SDS011;6121;49.810;6.418;2023-04-03T10:13:54;150.50;;;22.67;;
12114;SDS011;6121;49.810;6.418;2023-04-03T10:16:41;176.70;;;25.33;;
12114;SDS011;6121;49.810;6.418;2023-04-03T10:25:09;162.48;;;22.33;;
12114;SDS011;6121;49.810;6.418;2023-04-03T10:27:56;181.82;;;28.08;;
12114;SDS011;6121;49.810;6.418;2023-04-03T10:30:46;135.52;;;19.10;;
12114;SDS011;6121;49.810;6.418;2023-04-03T10:53:37;149.95;;;20.85;;
12114;SDS011;6121;49.810;6.418;2023-04-03T10:59:15;131.60;;;20.95;;
12114;SDS011;6121;49.810;6.418;2023-04-03T11:01:45;139.00;;;20.45;;
12114;SDS011;6121;49.810;6.418;2023-04-03T11:04:15;162.50;;;23.00;;
12114;SDS011;6121;49.810;6.418;2023-04-03T11:06:45;181.40;;;25.02;;
12114;SDS011;6121;49.810;6.418;2023-04-03T11:09:19;145.07;;;20.17;;
12114;SDS011;6121;49.810;6.418;2023-04-03T11:11:50;134.40;;;18.85;;
12114;SDS011;6121;49.810;6.418;2023-04-03T11:14:24;145.95;;;20.95;;
12114;SDS011;6121;49.810;6.418;2023-04-03T11:20:18;118.47;;;15.55;;
12114;SDS011;6121;49.810;6.418;2023-04-03T11:23:15;146.30;;;19.05;;
12114;SDS011;6121;49.810;6.418;2023-04-03T11:25:38;126.38;;;16.48;;
12114;SDS011;6121;49.810;6.418;2023-04-03T11:28:11;119.55;;;15.45;;
12114;SDS011;6121;49.810;6.418;2023-04-03T11:30:44;117.82;;;15.38;;
12114;SDS011;6121;49.810;6.418;2023-04-03T11:36:00;120.60;;;15.83;;
12114;SDS011;6121;49.810;6.418;2023-04-03T11:38:35;127.57;;;16.67;;
12114;SDS011;6121;49.810;6.418;2023-04-03T11:41:06;126.53;;;16.48;;
12114;SDS011;6121;49.810;6.418;2023-04-03T11:43:36;126.70;;;16.37;;
12114;SDS011;6121;49.810;6.418;2023-04-03T11:46:08;126.30;;;16.55;;
12114;SDS011;6121;49.810;6.418;2023-04-03T11:51:01;140.60;;;18.07;;
12114;SDS011;6121;49.810;6.418;2023-04-03T11:53:47;142.32;;;18.30;;
12114;SDS011;6121;49.810;6.418;2023-04-03T12:01:55;148.82;;;19.15;;
12114;SDS011;6121;49.810;6.418;2023-04-03T12:04:24;134.88;;;17.33;;
12114;SDS011;6121;49.810;6.418;2023-04-03T12:06:53;178.20;;;22.52;;
12114;SDS011;6121;49.810;6.418;2023-04-03T12:15:17;136.25;;;17.65;;
12114;SDS011;6121;49.810;6.418;2023-04-03T12:17:44;145.38;;;18.50;;
12114;SDS011;6121;49.810;6.418;2023-04-03T12:23:27;171.50;;;21.55;;
12114;SDS011;6121;49.810;6.418;2023-04-03T12:28:47;128.65;;;16.63;;
12114;SDS011;6121;49.810;6.418;2023-04-03T12:31:15;126.80;;;16.35;;
12114;SDS011;6121;49.810;6.418;2023-04-03T12:33:50;129.23;;;16.63;;
12114;SDS011;6121;49.810;6.418;2023-04-03T12:39:25;127.88;;;16.45;;
12114;SDS011;6121;49.810;6.418;2023-04-03T12:45:09;139.55;;;17.85;;
12114;SDS011;6121;49.810;6.418;2023-04-03T12:47:45;141.10;;;17.93;;
12114;SDS011;6121;49.810;6.418;2023-04-03T12:53:04;142.13;;;18.05;;
12114;SDS011;6121;49.810;6.418;2023-04-03T12:55:32;146.30;;;18.42;;
12114;SDS011;6121;49.810;6.418;2023-04-03T12:58:13;159.50;;;20.02;;
12114;SDS011;6121;49.810;6.418;2023-04-03T13:00:58;123.32;;;15.73;;
12114;SDS011;6121;49.810;6.418;2023-04-03T13:03:29;145.63;;;18.50;;
12114;SDS011;6121;49.810;6.418;2023-04-03T13:06:00;139.65;;;17.67;;
12114;SDS011;6121;49.810;6.418;2023-04-03T13:08:28;118.43;;;15.60;;
12114;SDS011;6121;49.810;6.418;2023-04-03T13:10:58;110.38;;;14.60;;
12114;SDS011;6121;49.810;6.418;2023-04-03T13:13:28;123.90;;;16.27;;
12114;SDS011;6121;49.810;6.418;2023-04-03T13:15:55;134.80;;;17.60;;
12114;SDS011;6121;49.810;6.418;2023-04-03T13:18:26;122.60;;;16.10;;
12114;SDS011;6121;49.810;6.418;2023-04-03T13:20:58;113.60;;;15.07;;
12114;SDS011;6121;49.810;6.418;2023-04-03T13:23:29;144.80;;;18.77;;
12114;SDS011;6121;49.810;6.418;2023-04-03T13:25:57;150.07;;;19.38;;
12114;SDS011;6121;49.810;6.418;2023-04-03T13:28:27;113.53;;;14.95;;
12114;SDS011;6121;49.810;6.418;2023-04-03T13:30:55;132.95;;;17.38;;
12114;SDS011;6121;49.810;6.418;2023-04-03T13:33:28;131.38;;;17.25;;
12114;SDS011;6121;49.810;6.418;2023-04-03T13:35:58;126.00;;;16.45;;
12114;SDS011;6121;49.810;6.418;2023-04-03T13:38:30;130.32;;;17.00;;
12114;SDS011;6121;49.810;6.418;2023-04-03T13:41:22;121.82;;;15.98;;
12114;SDS011;6121;49.810;6.418;2023-04-03T13:43:53;117.88;;;15.48;;
12114;SDS011;6121;49.810;6.418;2023-04-03T13:48:52;114.87;;;15.10;;
12114;SDS011;6121;49.810;6.418;2023-04-03T13:51:21;166.52;;;21.40;;
12114;SDS011;6121;49.810;6.418;2023-04-03T13:53:51;130.05;;;17.05;;
12114;SDS011;6121;49.810;6.418;2023-04-03T13:58:56;116.40;;;15.35;;
12114;SDS011;6121;49.810;6.418;2023-04-03T14:02:09;114.68;;;15.02;;
12114;SDS011;6121;49.810;6.418;2023-04-03T14:07:09;149.00;;;19.35;;
12114;SDS011;6121;49.810;6.418;2023-04-03T14:09:36;141.37;;;18.33;;
12114;SDS011;6121;49.810;6.418;2023-04-03T14:12:05;127.88;;;16.52;;
12114;SDS011;6121;49.810;6.418;2023-04-03T14:14:42;113.15;;;14.88;;
12114;SDS011;6121;49.810;6.418;2023-04-03T14:17:17;155.30;;;19.80;;
12114;SDS011;6121;49.810;6.418;2023-04-03T14:19:46;96.43;;;13.02;;
12114;SDS011;6121;49.810;6.418;2023-04-03T14:22:19;143.40;;;18.45;;
12114;SDS011;6121;49.810;6.418;2023-04-03T14:24:50;153.38;;;19.58;;
12114;SDS011;6121;49.810;6.418;2023-04-03T14:27:18;151.82;;;19.50;;
12114;SDS011;6121;49.810;6.418;2023-04-03T14:29:49;98.50;;;13.25;;
12114;SDS011;6121;49.810;6.418;2023-04-03T14:32:18;133.27;;;17.33;;
12114;SDS011;6121;49.810;6.418;2023-04-03T14:34:46;111.67;;;14.73;;
12114;SDS011;6121;49.810;6.418;2023-04-03T14:37:16;157.57;;;20.15;;
12114;SDS011;6121;49.810;6.418;2023-04-03T14:39:45;99.25;;;13.07;;
12114;SDS011;6121;49.810;6.418;2023-04-03T14:42:20;124.00;;;16.13;;
12114;SDS011;6121;49.810;6.418;2023-04-03T14:44:48;127.13;;;16.60;;
12114;SDS011;6121;49.810;6.418;2023-04-03T14:47:16;165.25;;;21.15;;
12114;SDS011;6121;49.810;6.418;2023-04-03T14:49:44;97.07;;;13.05;;
12114;SDS011;6121;49.810;6.418;2023-04-03T14:52:44;124.57;;;16.25;;
12114;SDS011;6121;49.810;6.418;2023-04-03T14:55:03;107.78;;;14.25;;
12114;SDS011;6121;49.810;6.418;2023-04-03T14:57:31;164.50;;;20.92;;
12114;SDS011;6121;49.810;6.418;2023-04-03T14:59:57;118.40;;;15.57;;
12114;SDS011;6121;49.810;6.418;2023-04-03T15:02:33;116.88;;;15.35;;
12114;SDS011;6121;49.810;6.418;2023-04-03T15:05:04;113.50;;;14.85;;
12114;SDS011;6121;49.810;6.418;2023-04-03T15:07:33;172.38;;;22.05;;
12114;SDS011;6121;49.810;6.418;2023-04-03T15:10:14;124.77;;;16.27;;
12114;SDS011;6121;49.810;6.418;2023-04-03T15:12:49;122.57;;;16.02;;
12114;SDS011;6121;49.810;6.418;2023-04-03T15:15:15;134.50;;;17.50;;
12114;SDS011;6121;49.810;6.418;2023-04-03T15:17:42;134.70;;;17.63;;
12114;SDS011;6121;49.810;6.418;2023-04-03T15:20:20;117.73;;;15.43;;
12114;SDS011;6121;49.810;6.418;2023-04-03T15:22:47;117.78;;;15.45;;
12114;SDS011;6121;49.810;6.418;2023-04-03T15:25:14;111.82;;;14.73;;
12114;SDS011;6121;49.810;6.418;2023-04-03T15:27:40;131.68;;;17.08;;
12114;SDS011;6121;49.810;6.418;2023-04-03T15:30:07;123.25;;;16.08;;
12114;SDS011;6121;49.810;6.418;2023-04-03T15:32:36;123.63;;;16.20;;
12114;SDS011;6121;49.810;6.418;2023-04-03T15:35:02;117.03;;;15.40;;
12114;SDS011;6121;49.810;6.418;2023-04-03T15:37:28;165.07;;;21.02;;
12114;SDS011;6121;49.810;6.418;2023-04-03T15:39:54;74.22;;;10.20;;
12114;SDS011;6121;49.810;6.418;2023-04-03T15:42:19;84.72;;;11.50;;
12114;SDS011;6121;49.810;6.418;2023-04-03T15:44:45;72.90;;;10.17;;
12114;SDS011;6121;49.810;6.418;2023-04-03T15:47:12;93.97;;;12.63;;
12114;SDS011;6121;49.810;6.418;2023-04-03T15:49:38;92.00;;;12.40;;
12114;SDS011;6121;49.810;6.418;2023-04-03T15:52:04;61.40;;;8.68;;
12114;SDS011;6121;49.810;6.418;2023-04-03T15:54:30;100.18;;;13.27;;
12114;SDS011;6121;49.810;6.418;2023-04-03T15:56:56;54.40;;;7.78;;
12114;SDS011;6121;49.810;6.418;2023-04-03T15:59:22;111.55;;;14.85;;
12114;SDS011;6121;49.810;6.418;2023-04-03T16:01:48;65.70;;;9.17;;
12114;SDS011;6121;49.810;6.418;2023-04-03T16:04:15;80.00;;;10.85;;
12114;SDS011;6121;49.810;6.418;2023-04-03T16:06:41;72.03;;;9.98;;
12114;SDS011;6121;49.810;6.418;2023-04-03T16:09:07;59.50;;;8.38;;
12114;SDS011;6121;49.810;6.418;2023-04-03T16:11:34;71.18;;;9.77;;
12114;SDS011;6121;49.810;6.418;2023-04-03T16:14:02;54.30;;;7.70;;
12114;SDS011;6121;49.810;6.418;2023-04-03T16:16:28;81.53;;;10.95;;
12114;SDS011;6121;49.810;6.418;2023-04-03T16:18:55;56.45;;;7.95;;
12114;SDS011;6121;49.810;6.418;2023-04-03T16:21:21;76.95;;;10.40;;
12114;SDS011;6121;49.810;6.418;2023-04-03T16:23:49;59.95;;;8.40;;